createdAt,value
2022-08-07T00:00:33.777Z,99278.53
2022-08-07T00:03:36.843Z,99276.28
2022-08-07T00:06:45.489Z,99282.22
2022-08-07T00:10:17.787Z,99276.59
2022-08-07T00:13:25.658Z,99281.34
2022-08-07T00:16:28.620Z,99281.81
2022-08-07T00:19:34.279Z,99278.25
2022-08-07T00:22:53.737Z,99275.41
2022-08-07T00:26:00.283Z,99272.47
2022-08-07T00:29:04.893Z,99275.06
2022-08-07T00:32:08.282Z,99273.28
2022-08-07T00:35:10.236Z,99275.41
2022-08-07T00:38:13.083Z,99276.13
2022-08-07T00:41:15.350Z,99275.75
2022-08-07T00:44:17.572Z,99276.44
2022-08-07T00:48:07.885Z,99278.81
2022-08-07T00:50:50.619Z,99283.28
2022-08-07T00:53:55.908Z,99277.72
2022-08-07T00:56:58.384Z,99274.59
2022-08-07T01:00:00.267Z,99280.00
2022-08-07T01:03:03.175Z,99280.38
2022-08-07T01:06:06.119Z,99278.13
2022-08-07T01:09:08.228Z,99281.91
2022-08-07T01:12:30.160Z,99278.81
2022-08-07T01:15:36.073Z,99278.91
2022-08-07T01:18:56.690Z,99282.91
2022-08-07T01:22:00.831Z,99282.53
2022-08-07T01:25:53.885Z,99281.34
2022-08-07T01:28:34.681Z,99290.19
2022-08-07T01:31:42.452Z,99284.91
2022-08-07T01:34:49.284Z,99277.59
2022-08-07T01:37:52.224Z,99283.25
2022-08-07T01:41:02.146Z,99279.47
2022-08-07T01:44:04.549Z,99283.25
2022-08-07T01:48:16.599Z,99284.31
2022-08-07T01:50:32.822Z,99279.56
2022-08-07T01:54:09.046Z,99286.28
2022-08-07T01:57:20.403Z,99277.97
2022-08-07T02:00:31.231Z,99284.72
2022-08-07T02:03:48.559Z,99278.66
2022-08-07T02:06:52.314Z,99275.56
2022-08-07T02:09:58.662Z,99273.53
2022-08-07T02:13:04.687Z,99276.25
2022-08-07T02:16:19.862Z,99268.53
2022-08-07T02:20:04.797Z,99269.59
2022-08-07T02:23:00.102Z,99271.72
2022-08-07T02:26:30.605Z,99272.97
2022-08-07T02:29:28.114Z,99274.84
2022-08-07T02:32:36.129Z,99271.31
2022-08-07T02:36:29.028Z,99281.13
2022-08-07T02:39:17.458Z,99276.75
2022-08-07T02:42:34.151Z,99279.47
2022-08-07T02:46:00.796Z,99279.03
2022-08-07T02:49:03.327Z,99286.53
2022-08-07T02:52:12.889Z,99280.19
2022-08-07T02:55:28.483Z,99283.66
2022-08-07T02:58:48.327Z,99281.91
2022-08-07T03:01:52.255Z,99279.09
2022-08-07T03:05:00.540Z,99287.78
2022-08-07T03:08:10.215Z,99285.81
2022-08-07T03:11:17.756Z,99298.88
2022-08-07T03:14:22.402Z,99288.94
2022-08-07T03:17:25.597Z,99294.31
2022-08-07T03:20:29.792Z,99292.31
2022-08-07T03:23:33.845Z,99289.72
2022-08-07T03:27:00.744Z,99293.59
2022-08-07T03:30:11.262Z,99293.72
2022-08-07T03:33:18.366Z,99290.44
2022-08-07T03:36:25.942Z,99292.22
2022-08-07T03:39:46.240Z,99288.09
2022-08-07T03:42:56.580Z,99291.53
2022-08-07T03:46:00.241Z,99299.94
2022-08-07T03:49:05.271Z,99303.38
2022-08-07T03:52:22.270Z,99307.41
2022-08-07T03:55:57.948Z,99311.81
2022-08-07T03:59:08.494Z,99315.75
2022-08-07T04:02:10.868Z,99310.41
2022-08-07T04:05:24.049Z,99312.50
2022-08-07T04:08:42.744Z,99308.91
2022-08-07T04:12:21.115Z,99311.59
2022-08-07T04:15:12.321Z,99317.28
2022-08-07T04:18:57.946Z,99309.31
2022-08-07T04:21:39.876Z,99319.22
2022-08-07T04:25:02.335Z,99313.06
2022-08-07T04:28:08.531Z,99315.69
2022-08-07T04:31:20.135Z,99317.41
2022-08-07T04:34:34.147Z,99316.97
2022-08-07T04:38:01.007Z,99319.75
2022-08-07T04:41:04.835Z,99310.13
2022-08-07T04:44:18.621Z,99316.44
2022-08-07T04:47:57.329Z,99315.88
2022-08-07T04:51:15.476Z,99318.78
2022-08-07T04:54:31.820Z,99326.66
2022-08-07T04:58:16.701Z,99317.94
2022-08-07T05:01:31.903Z,99324.13
2022-08-07T05:04:50.387Z,99330.19
2022-08-07T05:08:10.097Z,99324.72
2022-08-07T05:11:27.553Z,99323.66
2022-08-07T05:15:03.440Z,99328.03
2022-08-07T05:18:32.074Z,99325.75
2022-08-07T05:22:00.611Z,99329.00
2022-08-07T05:25:00.606Z,99329.50
2022-08-07T05:28:20.352Z,99329.16
2022-08-07T05:31:34.993Z,99328.22
2022-08-07T05:34:43.790Z,99337.72
2022-08-07T05:37:46.852Z,99324.72
2022-08-07T05:41:13.979Z,99325.56
2022-08-07T05:44:29.134Z,99333.44
2022-08-07T05:47:38.200Z,99334.38
2022-08-07T05:50:59.849Z,99338.88
2022-08-07T05:54:13.063Z,99338.63
2022-08-07T05:57:30.508Z,99348.00
2022-08-07T06:00:41.171Z,99352.19
2022-08-07T06:03:58.623Z,99351.00
2022-08-07T06:07:06.136Z,99349.97
2022-08-07T06:10:15.285Z,99350.00
2022-08-07T06:13:31.546Z,99347.78
2022-08-07T06:16:50.185Z,99349.94
2022-08-07T06:20:04.151Z,99354.06
2022-08-07T06:23:25.169Z,99351.41
2022-08-07T06:26:31.880Z,99357.84
2022-08-07T06:29:34.987Z,99345.34
2022-08-07T06:32:42.274Z,99346.38
2022-08-07T06:35:48.176Z,99347.19
2022-08-07T06:40:15.906Z,99348.53
2022-08-07T06:42:37.582Z,99352.09
2022-08-07T06:46:00.985Z,99353.53
2022-08-07T06:49:04.754Z,99340.53
2022-08-07T06:52:11.723Z,99338.72
2022-08-07T06:55:34.547Z,99337.69
2022-08-07T07:00:14.209Z,99337.47
2022-08-07T07:02:48.152Z,99329.38
2022-08-07T07:06:04.150Z,99324.72
2022-08-07T07:09:24.936Z,99326.13
2022-08-07T07:13:02.499Z,99331.44
2022-08-07T07:16:09.733Z,99334.59
2022-08-07T07:19:55.502Z,99325.47
2022-08-07T07:24:08.191Z,99326.19
2022-08-07T07:26:33.188Z,99336.38
2022-08-07T07:29:57.029Z,99334.59
2022-08-07T07:32:57.034Z,99337.88
2022-08-07T07:36:12.701Z,99341.81
2022-08-07T07:39:20.776Z,99344.75
2022-08-07T07:42:32.890Z,99345.56
2022-08-07T07:46:38.139Z,99350.00
2022-08-07T07:49:09.185Z,99340.81
2022-08-07T07:52:25.265Z,99347.38
2022-08-07T07:55:37.317Z,99358.66
2022-08-07T07:58:41.786Z,99349.31
2022-08-07T08:02:03.564Z,99353.72
2022-08-07T08:05:14.468Z,99357.84
2022-08-07T08:08:34.236Z,99352.25
2022-08-07T08:11:59.351Z,99352.25
2022-08-07T08:15:01.690Z,99351.53
2022-08-07T08:18:17.287Z,99343.50
2022-08-07T08:22:00.623Z,99350.25
2022-08-07T08:25:41.712Z,99338.69
2022-08-07T08:28:46.189Z,99343.06
2022-08-07T08:32:04.720Z,99349.66
2022-08-07T08:35:19.079Z,99346.34
2022-08-07T08:38:29.232Z,99329.50
2022-08-07T08:41:57.170Z,99343.13
2022-08-07T08:45:42.059Z,99333.38
2022-08-07T08:49:01.901Z,99332.78
2022-08-07T08:52:25.295Z,99324.81
2022-08-07T08:55:55.063Z,99322.41
2022-08-07T08:59:54.424Z,99323.97
2022-08-07T09:03:49.739Z,99326.41
2022-08-07T09:07:14.798Z,99330.66
2022-08-07T09:10:55.906Z,99318.94
2022-08-07T09:14:16.522Z,99323.44
2022-08-07T09:18:10.002Z,99314.63
2022-08-07T09:21:57.786Z,99317.25
2022-08-07T09:25:17.328Z,99307.50
2022-08-07T09:30:01.528Z,99311.53
2022-08-07T09:32:02.586Z,99310.00
2022-08-07T09:36:04.846Z,99310.47
2022-08-07T09:39:54.833Z,99308.94
2022-08-07T09:43:18.007Z,99308.59
2022-08-07T09:47:50.209Z,99310.38
2022-08-07T09:50:19.652Z,99309.56
2022-08-07T09:53:24.928Z,99307.56
2022-08-07T09:56:46.514Z,99310.38
2022-08-07T10:00:00.546Z,99301.63
2022-08-07T10:04:06.291Z,99303.88
2022-08-07T10:07:31.739Z,99296.13
2022-08-07T10:12:01.886Z,99298.59
2022-08-07T10:15:44.198Z,99290.66
2022-08-07T10:19:19.793Z,99296.81
2022-08-07T10:22:33.653Z,99296.13
2022-08-07T10:25:44.429Z,99295.72
2022-08-07T10:29:17.988Z,99291.63
2022-08-07T10:32:59.582Z,99289.59
2022-08-07T10:36:29.233Z,99288.25
2022-08-07T10:40:06.055Z,99280.81
2022-08-07T10:43:43.290Z,99286.63
2022-08-07T10:47:11.926Z,99284.78
2022-08-07T10:50:34.220Z,99285.13
2022-08-07T10:54:06.948Z,99284.66
2022-08-07T10:57:51.552Z,99280.84
2022-08-07T11:01:15.307Z,99281.16
2022-08-07T11:04:37.735Z,99277.41
2022-08-07T11:08:02.674Z,99280.28
2022-08-07T11:11:20.356Z,99269.66
2022-08-07T11:14:43.469Z,99280.34
2022-08-07T11:17:54.656Z,99270.78
2022-08-07T11:20:56.461Z,99264.50
2022-08-07T11:24:08.467Z,99262.66
2022-08-07T11:27:21.408Z,99271.53
2022-08-07T11:31:08.617Z,99262.53
2022-08-07T11:34:18.490Z,99255.66
2022-08-07T11:38:10.467Z,99251.00
2022-08-07T11:41:18.304Z,99254.63
2022-08-07T11:44:52.720Z,99240.28
2022-08-07T11:48:30.193Z,99243.78
2022-08-07T11:51:48.821Z,99242.25
2022-08-07T11:55:19.109Z,99240.84
2022-08-07T11:58:57.793Z,99239.09
2022-08-07T12:02:20.977Z,99237.00
2022-08-07T12:06:39.716Z,99226.97
2022-08-07T12:10:02.162Z,99230.59
2022-08-07T12:13:36.697Z,99229.78
2022-08-07T12:16:53.804Z,99221.38
2022-08-07T12:20:10.318Z,99226.13
2022-08-07T12:24:05.590Z,99224.75
2022-08-07T12:27:16.302Z,99229.41
2022-08-07T12:30:23.484Z,99224.28
2022-08-07T12:33:55.878Z,99215.06
2022-08-07T12:36:57.104Z,99223.56
2022-08-07T12:40:02.969Z,99225.34
2022-08-07T12:43:09.453Z,99219.97
2022-08-07T12:46:37.547Z,99215.75
2022-08-07T12:50:04.506Z,99210.63
2022-08-07T12:53:29.010Z,99208.66
2022-08-07T12:56:55.623Z,99201.31
2022-08-07T13:00:16.442Z,99211.56
2022-08-07T13:04:02.982Z,99203.88
2022-08-07T13:08:14.030Z,99208.06
2022-08-07T13:11:22.985Z,99198.63
2022-08-07T13:15:06.798Z,99208.19
2022-08-07T13:18:26.762Z,99200.94
2022-08-07T13:25:24.295Z,99198.09
2022-08-07T13:28:50.114Z,99198.56
2022-08-07T13:32:31.926Z,99189.34
2022-08-07T13:36:00.787Z,99190.84
2022-08-07T13:40:33.990Z,99183.97
2022-08-07T13:43:11.922Z,99190.06
2022-08-07T13:46:25.609Z,99191.66
2022-08-07T13:50:33.176Z,99185.63
2022-08-07T13:53:03.094Z,99185.69
2022-08-07T13:56:06.590Z,99190.47
2022-08-07T13:59:21.639Z,99194.88
2022-08-07T14:02:29.774Z,99192.31
2022-08-07T14:05:44.030Z,99190.47
2022-08-07T14:08:53.837Z,99194.53
2022-08-07T14:12:01.062Z,99196.31
2022-08-07T14:15:16.629Z,99198.31
2022-08-07T14:18:39.048Z,99197.56
2022-08-07T14:22:02.318Z,99196.75
2022-08-07T14:25:13.230Z,99197.34
2022-08-07T14:28:18.360Z,99203.38
2022-08-07T14:31:25.071Z,99200.78
2022-08-07T14:34:47.224Z,99209.44
2022-08-07T14:38:03.553Z,99207.84
2022-08-07T14:41:14.733Z,99205.19
2022-08-07T14:44:20.157Z,99213.56
2022-08-07T14:47:31.026Z,99216.78
2022-08-07T14:50:41.500Z,99221.22
2022-08-07T14:54:06.596Z,99221.09
2022-08-07T14:57:19.177Z,99217.47
2022-08-07T15:00:39.786Z,99219.47
2022-08-07T15:03:51.696Z,99225.00
2022-08-07T15:06:57.122Z,99227.06
2022-08-07T15:10:01.986Z,99230.94
2022-08-07T15:13:20.186Z,99235.16
2022-08-07T15:16:33.468Z,99232.00
2022-08-07T15:26:33.605Z,99240.94
2022-08-07T15:30:06.816Z,99244.28
2022-08-07T15:33:19.678Z,99245.78
2022-08-07T15:37:04.132Z,99257.09
2022-08-07T15:39:57.583Z,99250.16
2022-08-07T15:43:53.153Z,99244.75
2022-08-07T15:46:51.885Z,99244.97
2022-08-07T15:53:52.091Z,99245.00
2022-08-07T15:56:59.255Z,99253.47
2022-08-07T16:00:06.403Z,99264.41
2022-08-07T16:03:20.603Z,99256.38
2022-08-07T16:06:36.297Z,99257.38
2022-08-07T16:09:54.013Z,99262.13
2022-08-07T16:13:58.064Z,99272.31
2022-08-07T16:17:15.027Z,99262.69
2022-08-07T16:20:41.913Z,99258.03
2022-08-07T16:24:34.869Z,99260.19
2022-08-07T16:28:01.669Z,99269.97
2022-08-07T16:31:51.197Z,99263.34
2022-08-07T16:35:51.661Z,99269.19
2022-08-07T16:39:01.112Z,99271.53
2022-08-07T16:42:03.700Z,99273.41
2022-08-07T16:46:21.425Z,99276.88
2022-08-07T16:50:28.197Z,99281.84
2022-08-07T16:53:20.720Z,99280.31
2022-08-07T16:56:53.491Z,99280.00
2022-08-07T17:00:30.128Z,99284.66
2022-08-07T17:04:12.504Z,99289.00
2022-08-07T17:07:55.214Z,99283.38
2022-08-07T17:11:06.863Z,99289.03
2022-08-07T17:14:19.640Z,99288.59
2022-08-07T17:17:47.777Z,99291.16
2022-08-07T17:20:54.751Z,99296.47
2022-08-07T17:24:23.790Z,99297.63
2022-08-07T17:27:53.744Z,99297.34
2022-08-07T17:31:24.276Z,99302.94
2022-08-07T17:35:02.875Z,99298.63
2022-08-07T17:38:12.074Z,99310.97
2022-08-07T17:42:01.663Z,99310.38
2022-08-07T17:45:17.853Z,99316.22
2022-08-07T17:48:33.511Z,99317.34
2022-08-07T17:51:49.286Z,99318.41
2022-08-07T17:55:54.951Z,99312.91
2022-08-07T17:58:57.299Z,99318.19
2022-08-07T18:02:15.191Z,99317.44
2022-08-07T18:05:23.845Z,99321.63
2022-08-07T18:09:05.381Z,99330.25
2022-08-07T18:12:28.553Z,99330.25
2022-08-07T18:15:43.891Z,99325.59
2022-08-07T18:21:12.328Z,99323.13
2022-08-07T18:22:47.474Z,99326.47
2022-08-07T18:26:01.364Z,99322.88
2022-08-07T18:30:04.208Z,99330.34
2022-08-07T18:33:16.708Z,99317.47
2022-08-07T18:36:32.992Z,99324.94
2022-08-07T18:40:08.308Z,99322.47
2022-08-07T18:43:36.902Z,99324.97
2022-08-07T18:47:22.535Z,99326.34
2022-08-07T18:50:46.136Z,99324.16
2022-08-07T18:54:30.953Z,99321.41
2022-08-07T18:57:44.554Z,99321.94
2022-08-07T19:02:19.069Z,99321.41
2022-08-07T19:04:54.924Z,99321.41
2022-08-07T19:08:11.483Z,99316.75
2022-08-07T19:11:35.852Z,99315.09
2022-08-07T19:16:03.515Z,99312.91
2022-08-07T19:18:48.059Z,99312.63
2022-08-07T19:22:45.064Z,99308.78
2022-08-07T19:26:22.682Z,99318.16
2022-08-07T19:31:04.038Z,99308.25
2022-08-07T19:32:45.277Z,99309.34
2022-08-07T19:36:00.299Z,99306.56
2022-08-07T19:39:09.279Z,99318.94
2022-08-07T19:42:24.670Z,99317.28
2022-08-07T19:46:05.694Z,99325.25
2022-08-07T19:49:13.075Z,99328.28
2022-08-07T19:52:24.970Z,99325.25
2022-08-07T19:55:58.113Z,99326.34
2022-08-07T19:58:54.822Z,99324.69
2022-08-07T20:01:59.938Z,99326.34
2022-08-07T20:05:07.678Z,99333.75
2022-08-07T20:08:21.012Z,99330.44
2022-08-07T20:12:01.593Z,99327.66
2022-08-07T20:14:54.155Z,99332.88
2022-08-07T20:18:04.477Z,99328.75
2022-08-07T20:21:21.045Z,99324.50
2022-08-07T20:24:31.549Z,99332.75
2022-08-07T20:27:46.043Z,99328.09
2022-08-07T20:30:50.300Z,99340.16
2022-08-07T20:33:56.799Z,99339.16
2022-08-07T20:36:59.580Z,99344.72
2022-08-07T20:40:32.383Z,99344.03
2022-08-07T20:43:29.768Z,99347.50
2022-08-07T20:46:44.261Z,99339.75
2022-08-07T20:49:58.114Z,99338.94
2022-08-07T20:53:03.711Z,99344.41
2022-08-07T20:56:09.537Z,99341.28
2022-08-07T20:59:27.236Z,99345.50
2022-08-07T21:03:03.761Z,99356.25
2022-08-07T21:06:21.823Z,99351.16
2022-08-07T21:09:51.874Z,99348.53
2022-08-07T21:12:58.206Z,99352.97
2022-08-07T21:16:03.638Z,99357.22
2022-08-07T21:19:14.042Z,99354.66
2022-08-07T21:22:19.150Z,99352.44
2022-08-07T21:25:45.576Z,99354.00
2022-08-07T21:29:12.950Z,99354.16
2022-08-07T21:32:44.193Z,99359.31
2022-08-07T21:36:36.029Z,99357.56
2022-08-07T21:39:51.518Z,99353.84
2022-08-07T21:42:59.752Z,99355.06
2022-08-07T21:46:25.042Z,99358.78
2022-08-07T21:50:00.823Z,99351.00
2022-08-07T21:53:20.777Z,99352.78
2022-08-07T21:56:49.188Z,99360.88
2022-08-07T22:00:22.315Z,99358.31
2022-08-07T22:03:30.929Z,99367.25
2022-08-07T22:06:44.990Z,99363.34
2022-08-07T22:09:53.884Z,99363.00
2022-08-07T22:13:09.231Z,99361.81
2022-08-07T22:16:44.689Z,99360.66
2022-08-07T22:20:23.453Z,99359.47
2022-08-07T22:23:40.507Z,99363.88
2022-08-07T22:26:49.117Z,99366.34
2022-08-07T22:30:14.728Z,99363.97
2022-08-07T22:33:18.557Z,99365.13
2022-08-07T22:36:52.717Z,99366.56
2022-08-07T22:39:54.993Z,99370.13
2022-08-07T22:43:31.493Z,99362.50
2022-08-07T22:47:08.572Z,99375.34
2022-08-07T22:50:33.490Z,99373.09
2022-08-07T22:54:05.676Z,99373.34
2022-08-07T22:57:25.985Z,99375.97
2022-08-07T23:00:34.947Z,99374.56
2022-08-07T23:03:57.578Z,99374.22
2022-08-07T23:07:42.233Z,99375.78
2022-08-07T23:10:56.628Z,99372.34
2022-08-07T23:14:24.786Z,99375.22
2022-08-07T23:17:59.378Z,99373.09
2022-08-07T23:21:03.940Z,99370.28
2022-08-07T23:24:17.010Z,99378.91
2022-08-07T23:27:37.732Z,99370.38
2022-08-07T23:32:49.032Z,99374.88
2022-08-07T23:35:25.769Z,99372.06
2022-08-07T23:39:08.571Z,99384.28
2022-08-07T23:42:26.480Z,99376.94
2022-08-07T23:46:03.707Z,99380.00
2022-08-07T23:49:50.546Z,99376.56
2022-08-07T23:53:49.986Z,99375.16
2022-08-07T23:56:53.896Z,99376.47
